Time;durP1;ratioP1;P1;durP2;ratioP2;P2;SDS_P1;SDS_P2;PMS_P1;PMS_P2;Temp;Humidity;BMP_temperature;BMP_pressure;BME280_temperature;BME280_humidity;BME280_pressure;Samples;Min_cycle;Max_cycle;Signal;HPM_P1;HPM_P2
2024/01/08 00:01:37;;;;;;;10.40;4.47;;;-2.10;98.00;-2.60;101385.00;;;;4908710;28;122727;-64
2024/01/08 00:04:03;;;;;;;8.77;4.43;;;-2.10;98.30;-2.60;101379.00;;;;4910045;28;94017;-66
2024/01/08 00:06:30;;;;;;;8.33;4.70;;;-2.10;98.40;-2.70;101382.00;;;;4905377;28;101665;-65
2024/01/08 00:08:56;;;;;;;8.37;4.90;;;-2.20;98.50;-2.70;101388.00;;;;4907265;28;97330;-65
2024/01/08 00:11:24;;;;;;;6.33;3.87;;;-2.20;98.70;-2.70;101389.00;;;;4906362;28;94408;-66
2024/01/08 00:13:50;;;;;;;3.83;3.33;;;-2.20;99.00;-2.80;101389.00;;;;4909157;28;122215;-64
2024/01/08 00:16:20;;;;;;;5.17;3.50;;;-2.30;99.10;-2.80;101379.00;;;;4902195;28;111738;-64
2024/01/08 00:18:45;;;;;;;6.27;3.50;;;-2.30;99.30;-2.90;101377.00;;;;4921131;28;105447;-65
2024/01/08 00:21:11;;;;;;;6.60;3.77;;;-2.30;99.40;-2.90;101386.00;;;;4906915;28;115658;-65
2024/01/08 00:23:37;;;;;;;6.90;4.03;;;-2.40;99.50;-3.00;101396.00;;;;4906937;28;123954;-68
2024/01/08 00:26:03;;;;;;;7.10;4.10;;;-2.40;99.60;-3.00;101390.00;;;;4906704;28;92999;-66
2024/01/08 00:28:28;;;;;;;6.27;4.20;;;-1.70;99.90;-3.10;101394.00;;;;4904265;28;99071;-65
2024/01/08 00:30:54;;;;;;;5.00;3.60;;;-2.60;99.90;-3.10;101403.00;;;;4906192;28;97072;-65
2024/01/08 00:33:20;;;;;;;8.57;5.23;;;-2.60;99.90;-3.10;101402.00;;;;4904731;28;120660;-65
2024/01/08 00:35:45;;;;;;;6.00;3.67;;;-2.70;99.90;-3.10;101404.00;;;;4903525;28;110708;-65
2024/01/08 00:38:11;;;;;;;10.43;4.20;;;-2.60;99.90;-3.20;101401.00;;;;4907117;28;108276;-65
2024/01/08 00:40:37;;;;;;;6.27;4.53;;;-2.70;99.90;-3.20;101404.00;;;;4906211;28;93354;-65
2024/01/08 00:43:02;;;;;;;8.03;4.20;;;-1.80;99.90;-3.20;101410.00;;;;4907539;28;92918;-65
2024/01/08 00:45:28;;;;;;;7.70;3.67;;;-2.60;99.90;-3.20;101414.00;;;;4904080;28;110566;-64
2024/01/08 00:47:54;;;;;;;5.00;3.43;;;-2.70;99.90;-3.20;101414.00;;;;4908255;28;96302;-65
2024/01/08 00:50:19;;;;;;;5.53;3.30;;;-2.70;99.90;-3.20;101401.00;;;;4903194;28;123196;-65
2024/01/08 00:52:45;;;;;;;9.23;4.47;;;-2.30;99.90;-3.20;101413.00;;;;4904748;28;123508;-64
2024/01/08 00:55:11;;;;;;;5.83;4.13;;;-2.80;99.90;-3.20;101427.00;;;;4903558;28;92841;-65
2024/01/08 00:57:38;;;;;;;10.53;4.10;;;-2.80;99.80;-3.30;101412.00;;;;4908561;28;93067;-64
2024/01/08 01:00:06;;;;;;;8.73;4.73;;;-2.80;99.50;-3.40;101421.00;;;;4904331;28;93567;-64
2024/01/08 01:02:31;;;;;;;7.17;4.37;;;-2.90;98.80;-3.50;101431.00;;;;4909219;28;110734;-64
2024/01/08 01:04:58;;;;;;;8.47;5.10;;;-2.90;98.80;-3.50;101428.00;;;;4902550;28;110782;-64
2024/01/08 01:07:23;;;;;;;7.80;3.90;;;-3.00;98.80;-3.70;101438.00;;;;4904238;28;92863;-64
2024/01/08 01:09:49;;;;;;;9.37;4.83;;;-3.10;97.80;-3.80;101424.00;;;;4908273;28;94454;-64
2024/01/08 01:12:15;;;;;;;8.67;4.30;;;-3.20;97.50;-3.90;101426.00;;;;4905607;28;123582;-65
2024/01/08 01:14:41;;;;;;;6.33;4.30;;;-3.30;97.60;-4.00;101426.00;;;;4910071;28;110497;-64
2024/01/08 01:17:06;;;;;;;8.40;3.70;;;-3.40;97.20;-4.00;101433.00;;;;4906305;28;104616;-64
2024/01/08 01:19:32;;;;;;;7.53;4.40;;;-3.50;97.30;-4.10;101440.00;;;;4906026;28;123501;-65
2024/01/08 01:22:01;;;;;;;9.07;5.10;;;-3.60;97.40;-4.10;101435.00;;;;4907207;28;107334;-64
2024/01/08 01:24:26;;;;;;;7.13;4.90;;;-3.70;97.50;-4.20;101445.00;;;;4903970;28;110696;-63
2024/01/08 01:26:52;;;;;;;7.03;4.00;;;-3.60;97.50;-4.20;101443.00;;;;4907377;28;108656;-63
2024/01/08 01:29:20;;;;;;;6.57;4.77;;;-3.70;97.40;-4.30;101440.00;;;;4907374;28;121517;-63
2024/01/08 01:31:46;;;;;;;7.40;4.03;;;-3.70;97.50;-4.40;101450.00;;;;4906611;28;120254;-63
2024/01/08 01:34:12;;;;;;;7.83;4.30;;;-3.70;97.50;-4.40;101446.00;;;;4907306;28;110157;-63
2024/01/08 01:36:38;;;;;;;6.30;4.27;;;-3.90;97.30;-4.50;101455.00;;;;4904112;28;92862;-63
2024/01/08 01:39:04;;;;;;;7.20;4.30;;;-3.90;97.30;-4.60;101457.00;;;;4906513;28;121872;-63
2024/01/08 01:41:32;;;;;;;9.47;5.10;;;-3.90;97.20;-4.60;101449.00;;;;4903274;28;94210;-64
2024/01/08 01:43:58;;;;;;;8.53;4.53;;;-4.00;97.30;-4.70;101446.00;;;;4905708;28;94701;-63
2024/01/08 01:46:27;;;;;;;5.50;3.83;;;-4.10;97.30;-4.70;101446.00;;;;4905099;28;93098;-62
2024/01/08 01:48:53;;;;;;;6.63;4.50;;;-4.10;97.50;-4.70;101445.00;;;;4922068;28;93236;-63
2024/01/08 01:51:19;;;;;;;7.27;4.23;;;-4.20;97.60;-4.70;101433.00;;;;4907943;28;122638;-64
2024/01/08 01:53:45;;;;;;;5.03;4.23;;;-4.30;97.50;-4.70;101450.00;;;;4910153;28;111331;-65
2024/01/08 01:56:13;;;;;;;9.20;5.07;;;-4.20;97.60;-4.80;101450.00;;;;4904339;28;106940;-65
2024/01/08 01:58:38;;;;;;;9.40;5.03;;;-4.30;97.70;-4.80;101448.00;;;;4901916;28;97080;-64
2024/01/08 02:01:04;;;;;;;8.63;4.57;;;-4.10;97.80;-4.80;101455.00;;;;4907834;28;123436;-62
2024/01/08 02:03:31;;;;;;;13.10;5.50;;;-4.40;98.00;-4.80;101445.00;;;;4908285;28;92884;-62
2024/01/08 02:05:57;;;;;;;10.97;5.03;;;-4.20;98.00;-4.90;101459.00;;;;4906946;28;100965;-62
2024/01/08 02:08:24;;;;;;;11.27;5.33;;;-4.40;98.00;-4.90;101455.00;;;;4907329;28;121007;-63
2024/01/08 02:10:51;;;;;;;7.63;4.20;;;-4.30;98.10;-4.90;101449.00;;;;4906100;28;114407;-62
2024/01/08 02:13:17;;;;;;;11.07;5.57;;;-4.20;98.10;-4.90;101456.00;;;;4908907;28;102734;-62
2024/01/08 02:15:42;;;;;;;6.33;5.03;;;-4.40;97.90;-4.90;101460.00;;;;4911992;28;98223;-62
2024/01/08 02:18:08;;;;;;;8.37;5.03;;;-4.40;98.00;-5.00;101465.00;;;;4906806;28;122898;-62
2024/01/08 02:20:34;;;;;;;6.40;5.23;;;-4.40;98.10;-5.00;101464.00;;;;4907373;28;122495;-61
2024/01/08 02:22:59;;;;;;;9.83;5.40;;;-4.50;98.10;-5.00;101473.00;;;;4910047;28;110129;-62
2024/01/08 02:25:26;;;;;;;8.53;5.57;;;-4.40;98.10;-5.10;101463.00;;;;4909350;28;109092;-63
2024/01/08 02:27:52;;;;;;;8.17;4.53;;;-4.50;98.10;-5.10;101477.00;;;;4910709;28;93115;-63
2024/01/08 02:30:18;;;;;;;9.07;4.73;;;-4.60;98.20;-5.10;101470.00;;;;4903972;28;92853;-62
2024/01/08 02:32:44;;;;;;;8.10;4.77;;;-4.50;98.20;-5.10;101473.00;;;;4910740;28;93390;-63
2024/01/08 02:35:09;;;;;;;10.83;5.43;;;-4.50;98.30;-5.10;101467.00;;;;4909468;28;101814;-61
2024/01/08 02:37:35;;;;;;;10.03;5.20;;;-3.60;98.50;-5.20;101464.00;;;;4910451;28;122464;-63
2024/01/08 02:40:02;;;;;;;9.30;5.43;;;-4.60;98.20;-5.20;101470.00;;;;4909013;28;93609;-62
2024/01/08 02:42:27;;;;;;;9.13;5.40;;;-4.60;98.10;-5.30;101480.00;;;;4909023;28;93321;-63
2024/01/08 02:44:54;;;;;;;8.10;4.80;;;-4.70;98.20;-5.40;101486.00;;;;4906904;28;107656;-62
2024/01/08 02:47:19;;;;;;;6.93;4.20;;;-4.80;98.30;-5.40;101491.00;;;;4911410;28;106523;-62
2024/01/08 02:49:45;;;;;;;9.87;5.43;;;-4.80;98.30;-5.50;101496.00;;;;4909013;28;123886;-61
2024/01/08 02:52:11;;;;;;;8.27;5.50;;;-4.90;98.20;-5.50;101496.00;;;;4907172;28;109608;-62
2024/01/08 02:54:36;;;;;;;10.50;5.10;;;-4.90;98.30;-5.60;101500.00;;;;4909113;28;95618;-62
2024/01/08 02:57:03;;;;;;;9.57;5.00;;;-5.00;98.30;-5.70;101502.00;;;;4906907;28;93748;-62
2024/01/08 02:59:29;;;;;;;9.60;5.10;;;-5.10;98.20;-5.80;101505.00;;;;4905080;28;93932;-62
2024/01/08 03:01:55;;;;;;;7.97;5.13;;;-5.20;98.30;-5.90;101513.00;;;;4905598;28;111802;-62
2024/01/08 03:04:20;;;;;;;8.87;5.20;;;-5.10;98.40;-5.90;101517.00;;;;4911097;28;92139;-63
2024/01/08 03:06:46;;;;;;;5.73;4.13;;;-5.30;98.40;-5.90;101531.00;;;;4907298;28;123852;-62
2024/01/08 03:09:14;;;;;;;9.87;5.33;;;-5.30;98.60;-5.90;101534.00;;;;4905203;28;122245;-62
2024/01/08 03:11:40;;;;;;;9.13;4.67;;;-5.40;98.00;-5.90;101532.00;;;;4909352;28;100376;-62
2024/01/08 03:14:05;;;;;;;9.13;5.07;;;-5.20;98.70;-5.80;101542.00;;;;4908643;28;109196;-62
2024/01/08 03:16:31;;;;;;;10.13;4.90;;;-5.30;98.80;-5.80;101547.00;;;;4909992;28;123096;-63
2024/01/08 03:18:57;;;;;;;12.47;5.97;;;-5.20;98.80;-5.90;101540.00;;;;4907429;28;93102;-63
2024/01/08 03:21:22;;;;;;;9.03;5.13;;;-5.30;98.70;-5.90;101557.00;;;;4905501;28;108965;-62
2024/01/08 03:23:48;;;;;;;6.33;4.67;;;-5.10;98.70;-5.90;101547.00;;;;4903272;28;108653;-63
2024/01/08 03:26:14;;;;;;;6.53;4.20;;;-4.70;98.80;-6.00;101559.00;;;;4907467;28;120599;-62
2024/01/08 03:28:39;;;;;;;8.43;4.73;;;-5.30;98.40;-6.10;101549.00;;;;4907515;28;102190;-63
2024/01/08 03:31:05;;;;;;;9.03;5.57;;;-5.40;98.40;-6.10;101564.00;;;;4911826;28;103371;-64
2024/01/08 03:33:30;;;;;;;11.10;4.63;;;-5.50;98.40;-6.20;101566.00;;;;4906996;28;107016;-63
2024/01/08 03:35:56;;;;;;;17.50;5.23;;;-5.60;98.40;-6.30;101570.00;;;;4906775;28;124682;-63
2024/01/08 03:38:23;;;;;;;8.97;5.00;;;-5.30;98.60;-6.40;101566.00;;;;4905353;28;108620;-63
2024/01/08 03:40:48;;;;;;;10.57;5.13;;;-5.60;98.50;-6.40;101560.00;;;;4904852;28;101737;-63
2024/01/08 03:43:14;;;;;;;6.17;4.83;;;-5.70;98.50;-6.40;101573.00;;;;4902752;28;104113;-63
2024/01/08 03:45:39;;;;;;;6.40;4.57;;;-5.80;98.70;-6.50;101569.00;;;;4904537;28;122034;-64
2024/01/08 03:48:05;;;;;;;6.80;4.53;;;-5.50;98.80;-6.50;101579.00;;;;4904931;28;122569;-63
2024/01/08 03:50:33;;;;;;;7.00;4.87;;;-5.80;98.80;-6.50;101580.00;;;;4905203;28;92901;-64
2024/01/08 03:52:58;;;;;;;11.40;5.50;;;-5.80;98.90;-6.50;101573.00;;;;4906460;28;92254;-63
2024/01/08 03:55:24;;;;;;;6.37;4.80;;;-4.80;99.30;-6.50;101579.00;;;;4903400;28;93261;-63
2024/01/08 03:57:50;;;;;;;11.17;4.90;;;-5.70;99.00;-6.50;101591.00;;;;4901051;28;122289;-64
2024/01/08 04:00:16;;;;;;;11.83;5.27;;;-5.80;99.00;-6.50;101593.00;;;;4903880;28;94245;-63
2024/01/08 04:02:41;;;;;;;6.37;4.90;;;-5.50;98.90;-6.50;101578.00;;;;4901926;28;100055;-63
2024/01/08 04:05:11;;;;;;;12.37;4.83;;;-5.80;99.00;-6.50;101580.00;;;;4906126;28;93048;-63
2024/01/08 04:07:37;;;;;;;7.60;4.40;;;-5.90;99.10;-6.50;101585.00;;;;4902468;28;94436;-63
2024/01/08 04:10:04;;;;;;;6.80;4.70;;;-5.90;99.00;-6.50;101590.00;;;;4906412;28;92943;-62
2024/01/08 04:12:30;;;;;;;10.97;5.70;;;-5.90;99.10;-6.50;101597.00;;;;4906972;28;92973;-65
2024/01/08 04:14:56;;;;;;;8.97;5.47;;;-5.30;99.40;-6.50;101603.00;;;;4908551;28;108704;-64
2024/01/08 04:17:21;;;;;;;6.97;4.37;;;-6.00;99.30;-6.50;101600.00;;;;4909281;28;122899;-64
2024/01/08 04:19:47;;;;;;;8.10;5.43;;;-5.90;99.40;-6.40;101599.00;;;;4906914;28;104827;-66
2024/01/08 04:22:13;;;;;;;9.17;4.93;;;-5.80;99.50;-6.40;101607.00;;;;4903085;28;108943;-63
2024/01/08 04:24:38;;;;;;;6.20;4.63;;;-5.70;99.60;-6.40;101603.00;;;;4902890;28;125003;-64
2024/01/08 04:27:04;;;;;;;7.00;4.23;;;-5.70;99.70;-6.40;101603.00;;;;4905861;28;122347;-64
2024/01/08 04:29:29;;;;;;;7.53;5.23;;;-5.70;99.70;-6.40;101616.00;;;;4905482;28;111596;-64
2024/01/08 04:31:56;;;;;;;7.50;5.30;;;-5.80;99.60;-6.40;101618.00;;;;4904949;28;108007;-63
2024/01/08 04:34:22;;;;;;;10.03;5.43;;;-5.70;99.70;-6.50;101624.00;;;;4903174;28;93547;-64
2024/01/08 04:36:48;;;;;;;10.77;5.27;;;-5.80;99.80;-6.50;101616.00;;;;4905627;28;113906;-65
2024/01/08 04:39:13;;;;;;;10.03;4.20;;;-6.10;99.70;-6.50;101628.00;;;;4904832;28;110107;-64
2024/01/08 04:41:39;;;;;;;8.10;4.90;;;-5.90;99.70;-6.50;101626.00;;;;4906875;28;103134;-64
2024/01/08 04:44:05;;;;;;;7.83;5.03;;;-5.90;99.90;-6.50;101637.00;;;;4905484;28;93078;-64
2024/01/08 04:46:31;;;;;;;6.30;4.63;;;-6.00;99.80;-6.60;101629.00;;;;4902513;28;93993;-63
2024/01/08 04:48:56;;;;;;;8.87;5.80;;;-5.80;99.90;-6.60;101606.00;;;;4905386;28;94056;-65
2024/01/08 04:51:25;;;;;;;10.90;4.67;;;-5.90;99.80;-6.60;101642.00;;;;4906503;28;109014;-64
2024/01/08 04:53:52;;;;;;;11.43;5.07;;;-6.00;99.90;-6.60;101639.00;;;;4908442;28;92875;-64
2024/01/08 04:56:23;;;;;;;9.03;5.20;;;-6.00;99.90;-6.60;101649.00;;;;4905607;28;93693;-64
2024/01/08 04:58:50;;;;;;;10.13;4.90;;;-5.20;99.90;-6.60;101649.00;;;;4905002;28;93034;-64
2024/01/08 05:01:16;;;;;;;9.93;5.60;;;-6.00;99.90;-6.70;101651.00;;;;4903050;28;95643;-66
2024/01/08 05:03:43;;;;;;;12.47;5.63;;;-5.90;99.90;-6.70;101653.00;;;;4911227;28;93691;-65
2024/01/08 05:06:13;;;;;;;8.50;4.97;;;-6.00;99.90;-6.70;101664.00;;;;4908996;28;93415;-63
2024/01/08 05:08:38;;;;;;;5.80;4.47;;;-6.00;99.20;-6.80;101667.00;;;;4911129;28;92927;-64
2024/01/08 05:11:06;;;;;;;8.40;5.07;;;-6.10;99.80;-6.80;101665.00;;;;4903311;28;92980;-64
2024/01/08 05:13:35;;;;;;;11.80;5.47;;;-6.20;99.80;-6.90;101666.00;;;;4904103;28;94761;-65
2024/01/08 05:16:01;;;;;;;8.73;4.70;;;-6.20;99.70;-6.90;101679.00;;;;4904289;28;103967;-63
2024/01/08 05:18:28;;;;;;;9.70;5.70;;;-6.20;99.80;-6.90;101675.00;;;;4905430;28;92940;-65
2024/01/08 05:20:54;;;;;;;7.10;4.33;;;-6.30;99.90;-6.90;101682.00;;;;4907556;28;96272;-64
2024/01/08 05:23:20;;;;;;;6.63;4.70;;;-6.30;99.90;-6.90;101683.00;;;;4904100;28;94008;-64
2024/01/08 05:25:46;;;;;;;8.63;5.50;;;-6.40;99.90;-7.00;101680.00;;;;4903485;28;93572;-64
2024/01/08 05:28:12;;;;;;;6.83;4.87;;;-6.30;99.90;-7.00;101681.00;;;;4905451;28;108966;-65
2024/01/08 05:30:37;;;;;;;9.43;5.60;;;-6.30;99.90;-7.00;101677.00;;;;4904780;28;109367;-65
2024/01/08 05:33:03;;;;;;;13.07;5.57;;;-6.30;99.90;-7.00;101684.00;;;;4906228;28;93517;-65
2024/01/08 05:35:29;;;;;;;8.40;5.13;;;-6.20;99.90;-7.00;101684.00;;;;4902223;28;110642;-66
2024/01/08 05:37:56;;;;;;;8.60;5.80;;;-6.30;99.90;-7.10;101687.00;;;;4907275;28;109418;-64
2024/01/08 05:40:22;;;;;;;16.57;7.53;;;-6.40;99.90;-7.10;101690.00;;;;4906278;28;98039;-65
2024/01/08 05:42:48;;;;;;;12.13;6.57;;;-6.50;99.80;-7.10;101706.00;;;;4905881;28;122493;-64
2024/01/08 05:45:14;;;;;;;13.07;7.00;;;-6.30;99.90;-7.20;101707.00;;;;4903217;28;108043;-64
2024/01/08 05:47:42;;;;;;;8.83;5.67;;;-5.40;99.90;-7.20;101701.00;;;;4905475;28;111436;-64
2024/01/08 05:50:08;;;;;;;9.40;5.57;;;-5.80;99.90;-7.20;101703.00;;;;4900463;28;93017;-64
2024/01/08 05:52:33;;;;;;;11.13;6.43;;;-6.40;99.90;-7.30;101707.00;;;;4903733;28;94099;-65
2024/01/08 05:54:59;;;;;;;15.33;5.33;;;-6.20;99.90;-7.30;101710.00;;;;4889056;28;121121;-64
2024/01/08 05:57:30;;;;;;;10.77;5.50;;;-6.60;99.90;-7.30;101712.00;;;;4904013;28;110841;-64
2024/01/08 05:59:57;;;;;;;9.03;6.13;;;-6.70;99.90;-7.30;101705.00;;;;4907769;28;93820;-64
2024/01/08 06:02:22;;;;;;;7.10;5.97;;;-6.60;99.90;-7.30;101717.00;;;;4905366;28;94341;-63
2024/01/08 06:04:48;;;;;;;11.00;6.33;;;-6.10;99.90;-7.30;101722.00;;;;4905414;28;123254;-64
2024/01/08 06:07:14;;;;;;;7.10;5.13;;;-6.60;99.90;-7.30;101729.00;;;;4903266;28;110363;-65
2024/01/08 06:09:39;;;;;;;10.37;6.00;;;-5.60;99.90;-7.40;101720.00;;;;4904394;28;108926;-64
2024/01/08 06:12:05;;;;;;;13.57;6.33;;;-5.60;99.90;-7.40;101722.00;;;;4905208;28;97744;-63
2024/01/08 06:14:31;;;;;;;12.70;6.50;;;-6.50;99.90;-7.40;101734.00;;;;4909810;28;99435;-64
2024/01/08 06:16:57;;;;;;;11.40;5.93;;;-5.90;99.90;-7.40;101740.00;;;;4904924;28;109139;-65
2024/01/08 06:19:22;;;;;;;12.70;7.57;;;-6.70;99.90;-7.40;101734.00;;;;4903090;28;103426;-65
2024/01/08 06:21:48;;;;;;;11.00;6.03;;;-5.80;99.90;-7.40;101734.00;;;;4906527;28;123725;-64
2024/01/08 06:24:14;;;;;;;13.77;7.27;;;-6.70;99.90;-7.40;101727.00;;;;4910243;28;93600;-64
2024/01/08 06:26:39;;;;;;;11.20;6.77;;;-6.70;99.90;-7.40;101725.00;;;;4900935;28;110345;-63
2024/01/08 06:29:05;;;;;;;14.90;6.77;;;-5.80;99.90;-7.40;101746.00;;;;4900731;28;109328;-64
2024/01/08 06:31:30;;;;;;;11.90;7.50;;;-6.70;99.90;-7.40;101743.00;;;;4903107;28;123169;-63
2024/01/08 06:33:56;;;;;;;10.20;6.70;;;-6.70;99.90;-7.40;101736.00;;;;4902142;28;121323;-64
2024/01/08 06:36:22;;;;;;;11.03;6.90;;;-6.70;99.90;-7.40;101732.00;;;;4903532;28;110298;-64
2024/01/08 06:38:48;;;;;;;11.23;7.33;;;-6.70;99.90;-7.40;101740.00;;;;4901928;28;92919;-63
2024/01/08 06:41:13;;;;;;;11.20;6.23;;;-6.80;99.90;-7.40;101741.00;;;;4902755;28;122707;-63
2024/01/08 06:43:39;;;;;;;14.53;7.60;;;-6.70;99.90;-7.40;101746.00;;;;4904868;28;122192;-64
2024/01/08 06:46:08;;;;;;;14.03;6.60;;;-6.70;99.90;-7.40;101756.00;;;;4905667;28;110247;-64
2024/01/08 06:48:34;;;;;;;10.27;6.63;;;-5.80;99.90;-7.40;101759.00;;;;4901988;28;106405;-64
2024/01/08 06:51:01;;;;;;;16.43;6.87;;;-5.70;99.90;-7.40;101753.00;;;;4899875;28;124318;-64
2024/01/08 06:53:27;;;;;;;39.87;24.80;;;-6.70;99.90;-7.30;101761.00;;;;4903015;28;94019;-64
2024/01/08 06:55:52;;;;;;;106.07;56.93;;;-6.60;99.90;-7.30;101765.00;;;;4903374;28;110459;-65
2024/01/08 06:58:33;;;;;;;15.10;9.00;;;-6.60;99.90;-7.30;101768.00;;;;4904400;28;106636;-65
2024/01/08 07:00:59;;;;;;;15.87;10.37;;;-6.60;99.90;-7.30;101782.00;;;;4902522;28;123739;-64
2024/01/08 07:03:25;;;;;;;18.90;12.53;;;-6.30;99.90;-7.20;101781.00;;;;4901843;28;97805;-65
2024/01/08 07:05:50;;;;;;;16.87;12.20;;;-5.90;99.90;-7.20;101769.00;;;;4900589;28;104878;-64
2024/01/08 07:08:17;;;;;;;17.30;11.37;;;-5.50;99.90;-7.20;101786.00;;;;4900145;28;108877;-64
2024/01/08 07:10:43;;;;;;;14.60;8.37;;;-6.60;99.90;-7.20;101780.00;;;;4906719;28;93528;-64
2024/01/08 07:13:08;;;;;;;14.70;7.50;;;-6.50;99.90;-7.20;101781.00;;;;4904453;28;110806;-65
2024/01/08 07:15:48;;;;;;;9.23;6.73;;;-6.50;99.90;-7.20;101785.00;;;;4901742;28;93827;-64
2024/01/08 07:18:18;;;;;;;11.67;7.33;;;-6.50;99.90;-7.20;101796.00;;;;4902506;28;93094;-64
2024/01/08 07:20:44;;;;;;;15.80;12.33;;;-6.50;99.90;-7.20;101787.00;;;;4900325;28;93054;-65
2024/01/08 07:23:15;;;;;;;11.83;7.60;;;-6.60;99.90;-7.20;101788.00;;;;4904137;28;93818;-64
2024/01/08 07:25:44;;;;;;;16.70;8.47;;;-6.50;99.90;-7.20;101790.00;;;;4904467;28;93286;-65
2024/01/08 07:28:11;;;;;;;15.33;8.23;;;-6.60;99.90;-7.20;101797.00;;;;4901724;28;93636;-64
2024/01/08 07:30:38;;;;;;;16.70;9.40;;;-6.50;99.90;-7.20;101803.00;;;;4905112;28;94152;-64
2024/01/08 07:33:04;;;;;;;14.90;8.60;;;-6.70;99.90;-7.30;101807.00;;;;4904889;28;92641;-64
2024/01/08 07:35:29;;;;;;;16.63;8.60;;;-6.60;99.90;-7.30;101800.00;;;;4909664;28;93027;-64
2024/01/08 07:37:55;;;;;;;11.53;7.27;;;-6.50;99.90;-7.30;101817.00;;;;4905963;28;93698;-64
2024/01/08 07:40:25;;;;;;;16.70;8.27;;;-6.50;99.90;-7.30;101819.00;;;;4903201;28;95008;-64
2024/01/08 07:42:56;;;;;;;16.83;8.13;;;-6.70;99.90;-7.30;101829.00;;;;4905703;28;94484;-66
2024/01/08 07:45:23;;;;;;;15.77;7.73;;;-6.70;99.90;-7.30;101833.00;;;;4901081;28;93242;-64
2024/01/08 07:47:49;;;;;;;13.80;7.03;;;-6.70;99.90;-7.30;101826.00;;;;4907776;28;93113;-64
2024/01/08 07:50:15;;;;;;;13.33;6.97;;;-6.70;99.90;-7.30;101832.00;;;;4901733;28;93483;-65
2024/01/08 07:52:41;;;;;;;10.20;6.83;;;-6.60;99.90;-7.30;101840.00;;;;4901465;28;93669;-65
2024/01/08 07:55:08;;;;;;;15.70;7.93;;;-6.70;99.90;-7.30;101842.00;;;;4909732;28;92856;-65
2024/01/08 07:57:34;;;;;;;16.50;7.27;;;-6.60;99.90;-7.40;101840.00;;;;4906174;28;94051;-67
2024/01/08 08:00:06;;;;;;;12.80;7.10;;;-6.70;99.90;-7.40;101838.00;;;;4901532;28;93153;-66
2024/01/08 08:02:39;;;;;;;13.63;7.00;;;-6.80;99.90;-7.40;101839.00;;;;4908755;28;92837;-65
2024/01/08 08:05:05;;;;;;;19.23;10.33;;;-6.80;99.90;-7.50;101846.00;;;;4899888;28;94023;-66
2024/01/08 08:07:32;;;;;;;21.90;11.47;;;-6.30;99.90;-7.50;101839.00;;;;4901457;28;92938;-64
2024/01/08 08:09:57;;;;;;;15.60;8.80;;;-6.80;99.90;-7.50;101846.00;;;;4900827;28;115515;-64
2024/01/08 08:12:23;;;;;;;56.50;23.67;;;-6.80;99.90;-7.50;101854.00;;;;4900141;28;110874;-65
2024/01/08 08:14:49;;;;;;;52.60;34.67;;;-6.80;99.90;-7.50;101870.00;;;;4906582;28;111866;-64
2024/01/08 08:17:16;;;;;;;23.67;17.13;;;-6.40;99.90;-7.60;101881.00;;;;4901754;28;92902;-65
2024/01/08 08:19:43;;;;;;;23.40;15.70;;;-6.80;99.90;-7.60;101883.00;;;;4896423;28;105691;-65
2024/01/08 08:22:11;;;;;;;24.73;19.33;;;-6.80;99.90;-7.60;101871.00;;;;4901600;28;92536;-65
2024/01/08 08:24:41;;;;;;;20.47;10.73;;;-6.90;99.90;-7.60;101876.00;;;;4905500;28;94305;-65
2024/01/08 08:27:10;;;;;;;11.33;9.07;;;-6.90;99.90;-7.60;101874.00;;;;4899593;28;93177;-64
2024/01/08 08:29:41;;;;;;;18.57;9.70;;;-6.90;99.90;-7.60;101875.00;;;;4900228;28;107313;-65
2024/01/08 08:32:08;;;;;;;16.67;9.50;;;-6.90;99.90;-7.60;101879.00;;;;4899656;28;94730;-65
2024/01/08 08:34:33;;;;;;;25.33;18.27;;;-7.00;99.90;-7.50;101883.00;;;;4899967;28;95706;-65
2024/01/08 08:36:59;;;;;;;18.20;12.03;;;-6.90;99.90;-7.50;101900.00;;;;4901631;28;93020;-64
2024/01/08 08:39:25;;;;;;;25.77;12.93;;;-6.90;99.90;-7.50;101890.00;;;;4901565;28;123314;-64
2024/01/08 08:41:50;;;;;;;28.93;16.27;;;-6.90;99.90;-7.40;101907.00;;;;4903656;28;121480;-65
2024/01/08 08:44:17;;;;;;;40.10;24.97;;;-6.80;99.90;-7.40;101900.00;;;;4898001;28;112730;-65
2024/01/08 08:46:44;;;;;;;21.40;13.97;;;-6.70;99.90;-7.40;101903.00;;;;4903294;28;92504;-65
2024/01/08 08:49:12;;;;;;;19.03;11.53;;;-6.80;99.90;-7.30;101911.00;;;;4898715;28;94409;-64
2024/01/08 08:51:38;;;;;;;23.57;11.93;;;-6.60;99.90;-7.40;101915.00;;;;4899855;28;93597;-65
2024/01/08 08:54:04;;;;;;;26.97;14.70;;;-6.70;99.90;-7.40;101920.00;;;;4899475;28;102814;-64
2024/01/08 08:56:34;;;;;;;32.93;17.77;;;-6.70;99.90;-7.40;101912.00;;;;4900477;28;93101;-65
2024/01/08 08:59:00;;;;;;;19.93;11.03;;;-6.70;99.90;-7.50;101936.00;;;;4902064;28;113119;-65
2024/01/08 09:01:26;;;;;;;31.10;18.07;;;-6.70;99.90;-7.50;101924.00;;;;4901162;28;93871;-65
2024/01/08 09:03:52;;;;;;;60.33;34.53;;;-6.80;99.90;-7.50;101925.00;;;;4900218;28;93390;-65
2024/01/08 09:06:20;;;;;;;22.37;12.77;;;-6.80;99.90;-7.40;101941.00;;;;4899986;28;107665;-65
2024/01/08 09:08:47;;;;;;;21.70;13.70;;;-6.80;99.90;-7.20;101933.00;;;;4899954;28;93851;-65
2024/01/08 09:11:13;;;;;;;16.37;10.17;;;-6.60;99.90;-7.00;101944.00;;;;4900005;28;93890;-66
2024/01/08 09:13:39;;;;;;;24.20;13.50;;;-6.40;99.90;-6.60;101949.00;;;;4900797;28;93202;-64
2024/01/08 09:16:04;;;;;;;23.47;12.03;;;-6.20;99.90;-6.30;101943.00;;;;4897859;28;107634;-65
2024/01/08 09:18:30;;;;;;;23.57;12.00;;;-5.90;99.90;-5.90;101949.00;;;;4897204;28;123838;-64
2024/01/08 09:20:56;;;;;;;161.33;68.77;;;-5.40;99.90;-5.60;101963.00;;;;4899161;28;94365;-64
2024/01/08 09:23:22;;;;;;;23.57;12.27;;;-5.20;99.90;-5.20;101959.00;;;;4902849;28;111521;-63
2024/01/08 09:25:47;;;;;;;18.40;9.97;;;-4.80;99.90;-4.90;101975.00;;;;4901070;28;110713;-61
2024/01/08 09:28:13;;;;;;;18.67;9.87;;;-3.30;99.90;-4.70;101967.00;;;;4901290;28;114879;-63
2024/01/08 09:30:39;;;;;;;13.33;9.47;;;-4.20;99.60;-4.50;101969.00;;;;4898625;28;123014;-62
2024/01/08 09:33:05;;;;;;;20.03;12.60;;;-4.00;99.20;-4.40;101958.00;;;;4896397;28;109839;-63
2024/01/08 09:35:31;;;;;;;16.80;12.60;;;-3.80;98.30;-4.20;101971.00;;;;4897279;28;92471;-62
2024/01/08 09:37:56;;;;;;;22.77;16.97;;;-3.70;98.20;-4.00;101970.00;;;;4900491;28;102600;-62
2024/01/08 09:40:22;;;;;;;11.47;7.77;;;-3.60;97.60;-3.80;101962.00;;;;4899193;28;122999;-63
2024/01/08 09:42:51;;;;;;;16.40;8.47;;;-3.40;97.20;-3.70;101973.00;;;;4902074;28;113599;-63
2024/01/08 09:45:23;;;;;;;13.77;8.93;;;-3.30;97.10;-3.50;101963.00;;;;4913900;28;92864;-63
2024/01/08 09:47:49;;;;;;;22.53;8.70;;;-3.10;97.00;-3.40;101978.00;;;;4899920;28;93194;-63
2024/01/08 09:50:15;;;;;;;13.37;8.37;;;-2.90;96.70;-3.30;101978.00;;;;4897866;28;121808;-63
2024/01/08 09:52:43;;;;;;;11.70;7.97;;;-2.90;96.30;-3.10;101978.00;;;;4900156;28;110057;-64
2024/01/08 09:55:10;;;;;;;17.93;12.17;;;-2.70;96.20;-3.00;101977.00;;;;4899976;28;92966;-65
2024/01/08 09:57:37;;;;;;;16.57;9.00;;;-2.70;95.80;-2.80;101973.00;;;;4903467;28;94131;-65
2024/01/08 10:00:05;;;;;;;26.40;16.27;;;-2.40;96.00;-2.50;101975.00;;;;4900230;28;92228;-65
2024/01/08 10:02:31;;;;;;;56.63;33.77;;;-2.20;95.10;-2.40;101985.00;;;;4906804;28;92949;-64
2024/01/08 10:04:57;;;;;;;33.70;22.67;;;-2.00;93.80;-2.40;101980.00;;;;4903175;28;101756;-65
2024/01/08 10:07:24;;;;;;;24.33;15.73;;;-3.00;93.50;-2.30;101984.00;;;;4898414;28;115967;-65
2024/01/08 10:09:50;;;;;;;18.93;10.80;;;-1.70;93.70;-2.10;101981.00;;;;4901027;28;122482;-66
2024/01/08 10:12:17;;;;;;;20.67;11.20;;;-1.70;93.60;-2.00;101987.00;;;;4903171;28;93662;-64
2024/01/08 10:14:43;;;;;;;44.80;27.23;;;-1.60;93.60;-1.90;101978.00;;;;4905462;28;93106;-66
2024/01/08 10:17:09;;;;;;;28.70;14.87;;;-0.80;92.30;-1.80;101989.00;;;;4908135;28;93343;-64
2024/01/08 10:19:35;;;;;;;15.53;10.73;;;-1.40;92.00;-1.70;101972.00;;;;4900455;28;123253;-65
2024/01/08 10:22:08;;;;;;;14.20;8.70;;;-1.00;92.30;-1.60;101973.00;;;;4905011;28;92958;-63
2024/01/08 10:24:36;;;;;;;11.47;6.83;;;-1.10;92.00;-1.50;101988.00;;;;4908301;28;92416;-64
2024/01/08 10:27:03;;;;;;;14.63;7.97;;;-1.10;92.10;-1.30;101991.00;;;;4903745;28;93059;-64
2024/01/08 10:29:29;;;;;;;8.97;6.67;;;-1.00;91.90;-1.20;101988.00;;;;4905555;28;93546;-65
2024/01/08 10:31:55;;;;;;;13.90;7.73;;;-0.80;91.90;-1.10;101988.00;;;;4903937;28;110562;-65
2024/01/08 10:34:21;;;;;;;13.43;7.10;;;-0.70;89.90;-1.10;101998.00;;;;4902785;28;107229;-64